Terminal Aerodrome Forecast
Issued by NWS Melbourne, FL

Current Version | Previous Version | Text Only | Print | Product List | Glossary On
Versions: 1 2 3 4 5 6 7 8 9 10 11 12 13 14 15 16 17 18
000
FTUS42 KMLB 251700 RRA
TAFVRB
TAF
KVRB 251747Z 2518/2618 36010KT P6SM BKN070
     FM260100 35004KT P6SM SCT025 BKN080
     FM261400 06008KT P6SM VCSH BKN025 BKN040=

USA.gov is the U.S. government's official web portal to all federal, state and local government web resources and services.